Dubai, United Arab Emirates
Current Conditions -  °F | °C
As of 2:00 AM on Thursday 29 Jan 2015 (Local Time) from OMDB Reporting Station
Clear Clear  
Wind Chill: 64°   Ceiling: Unl
Heat Index: 64°   Visibility: 5mi
Dew Point: 55°   Wind: 7mph
Humidity: 73%   Direction: 90°E
Pressure: 30.03"   Gusts: NA
Location:  25.27°N, 55.33°E
Report Text: OMDB 282200Z 09006KT 8000 NSC 18/13 Q1017 NOSIG
Loading
Personal Weather Stations






























Interactive Weather Map New forecast layout! Learn more

10-Day Weather Forecast

Advertisements
Track Severe Weather on mobile